Time;durP1;ratioP1;P1;durP2;ratioP2;P2;SDS_P1;SDS_P2;PMS_P1;PMS_P2;Temp;Humidity;BMP_temperature;BMP_pressure;BME280_temperature;BME280_humidity;BME280_pressure;Samples;Min_cycle;Max_cycle;Signal;HPM_P1;HPM_P2
2021/09/26 00:02:04;;;;;;;21.70;9.47;;;;;;;15.64;66.72;100980.67;126323;1099;104172;-80
2021/09/26 00:04:35;;;;;;;17.33;8.33;;;;;;;15.63;67.07;100973.62;126334;1098;104139;-80
2021/09/26 00:07:07;;;;;;;21.13;8.73;;;;;;;15.62;66.85;100979.75;126342;1098;104153;-81
2021/09/26 00:09:38;;;;;;;18.97;8.27;;;;;;;15.60;66.40;100973.55;126388;1099;102027;-80
2021/09/26 00:12:09;;;;;;;18.30;8.15;;;;;;;15.58;66.52;100969.95;126367;1099;104925;-80
2021/09/26 00:14:40;;;;;;;19.90;9.13;;;;;;;15.55;67.17;100968.15;126261;1099;104178;-80
2021/09/26 00:17:10;;;;;;;18.53;9.23;;;;;;;15.54;66.84;100968.11;126354;1098;104239;-79
2021/09/26 00:19:41;;;;;;;21.77;8.97;;;;;;;15.51;66.98;100971.57;126344;1099;104169;-80
2021/09/26 00:22:12;;;;;;;21.23;8.70;;;;;;;15.51;67.44;100970.69;126333;1099;104182;-80
2021/09/26 00:24:42;;;;;;;22.30;9.50;;;;;;;15.50;67.46;100971.53;126300;1099;104213;-80
2021/09/26 00:27:14;;;;;;;20.57;9.30;;;;;;;15.48;67.48;100974.14;126315;1097;105276;-81
2021/09/26 00:29:46;;;;;;;19.93;9.93;;;;;;;15.48;67.01;100971.50;126354;1099;104169;-80
2021/09/26 00:32:17;;;;;;;22.13;9.70;;;;;;;15.48;67.92;100973.27;126308;1099;104268;-79
2021/09/26 00:34:48;;;;;;;19.97;9.93;;;;;;;15.48;67.95;100975.91;126264;1099;104229;-80
2021/09/26 00:37:20;;;;;;;21.65;9.75;;;;;;;15.48;67.98;100971.50;126347;1099;104268;-79
2021/09/26 00:39:50;;;;;;;21.47;9.47;;;;;;;15.49;67.40;100975.94;126324;1099;104612;-78
2021/09/26 00:42:22;;;;;;;21.20;9.37;;;;;;;15.49;67.58;100980.31;126323;1099;104245;-80
2021/09/26 00:44:53;;;;;;;22.37;9.73;;;;;;;15.49;68.20;100982.96;126253;1099;104226;-81
2021/09/26 00:47:24;;;;;;;19.90;9.13;;;;;;;15.49;68.06;100980.31;126328;1099;104284;-81
2021/09/26 00:49:55;;;;;;;19.57;9.50;;;;;;;15.48;67.71;100981.20;126342;1098;104284;-80
2021/09/26 00:52:26;;;;;;;18.73;8.80;;;;;;;15.46;67.80;100974.11;126352;1099;104195;-80
2021/09/26 00:54:57;;;;;;;20.03;9.57;;;;;;;15.45;68.43;100977.59;126297;1099;104188;-81
2021/09/26 00:57:28;;;;;;;20.37;9.30;;;;;;;15.45;67.50;100976.72;126286;1099;104268;-82
2021/09/26 00:59:59;;;;;;;20.47;9.40;;;;;;;15.45;67.87;100972.31;126370;1097;104211;-80
2021/09/26 01:02:30;;;;;;;23.50;8.83;;;;;;;15.45;67.66;100977.59;126366;1099;104216;-80
2021/09/26 01:05:02;;;;;;;19.67;8.77;;;;;;;15.45;67.71;100977.59;126242;1099;104229;-80
2021/09/26 01:07:36;;;;;;;19.83;8.90;;;;;;;15.45;67.68;100967.02;126367;1098;104185;-80
2021/09/26 01:10:08;;;;;;;;;;;;;;;15.43;67.67;100968.75;126357;1099;104168;-80
2021/09/26 01:12:48;;;;;;;18.93;8.47;;;;;;;15.42;68.10;100969.59;126348;1099;104139;-81
2021/09/26 01:15:25;;;;;;;17.53;8.13;;;;;;;15.36;68.78;100995.89;126304;1099;104246;-82
2021/09/26 01:18:09;;;;;;;18.80;8.37;;;;;;;15.32;68.31;100975.55;126325;1097;104319;-81
2021/09/26 01:20:48;;;;;;;21.17;9.07;;;;;;;15.32;68.61;100978.19;126309;1098;104143;-81
2021/09/26 01:23:46;;;;;;;18.17;8.20;;;;;;;15.32;68.66;100983.47;126398;1099;104149;-80
2021/09/26 01:26:32;;;;;;;20.20;8.40;;;;;;;15.34;68.10;100983.52;126293;1099;104210;-80
2021/09/26 01:29:17;;;;;;;19.97;8.40;;;;;;;15.34;68.04;100980.87;126344;1099;104258;-80
2021/09/26 01:31:52;;;;;;;20.97;8.33;;;;;;;15.35;68.33;100975.61;126293;1099;104233;-80
2021/09/26 01:34:29;;;;;;;17.27;7.73;;;;;;;15.35;68.92;100980.91;126353;1099;104906;-80
2021/09/26 01:37:13;;;;;;;18.67;8.53;;;;;;;15.35;68.34;100977.34;126279;1099;104153;-79
2021/09/26 01:39:49;;;;;;;19.80;8.67;;;;;;;15.35;68.67;100972.97;126353;1098;104143;-80
2021/09/26 01:42:25;;;;;;;17.83;7.77;;;;;;;15.34;68.61;100973.81;126336;1098;104190;-80
2021/09/26 01:45:04;;;;;;;19.73;8.73;;;;;;;15.33;68.42;100966.73;126305;1099;104140;-80
2021/09/26 01:47:42;;;;;;;18.27;7.70;;;;;;;15.35;68.69;100978.26;126281;1099;104137;-79
2021/09/26 01:50:17;;;;;;;18.97;9.03;;;;;;;15.36;68.31;100971.20;126301;1098;104249;-80
2021/09/26 01:52:51;;;;;;;18.93;8.00;;;;;;;15.36;68.16;100982.67;126320;1099;104142;-80
2021/09/26 01:55:23;;;;;;;;;;;;;;;15.36;67.98;100976.50;126390;1098;104194;-81
2021/09/26 01:57:58;;;;;;;19.57;8.73;;;;;;;15.35;68.30;100979.98;126236;1098;104192;-80
2021/09/26 02:00:29;;;;;;;18.57;8.30;;;;;;;15.31;69.16;100979.03;126333;1098;104178;-79
2021/09/26 02:03:00;;;;;;;19.07;8.90;;;;;;;15.32;69.13;100974.62;126333;1099;104185;-80
2021/09/26 02:05:32;;;;;;;17.30;8.20;;;;;;;15.30;68.37;100987.80;126364;1099;104134;-81
2021/09/26 02:08:05;;;;;;;18.40;8.13;;;;;;;15.27;68.67;100985.13;126303;1099;104248;-80
2021/09/26 02:10:38;;;;;;;18.07;8.73;;;;;;;15.24;68.53;100988.58;126294;1097;104284;-79
2021/09/26 02:13:11;;;;;;;19.50;8.27;;;;;;;15.23;68.46;100986.77;126288;1099;104704;-79
2021/09/26 02:15:45;;;;;;;19.67;8.67;;;;;;;15.23;69.38;100991.18;126346;1099;104148;-79
2021/09/26 02:18:17;;;;;;;17.30;8.80;;;;;;;15.23;69.52;100988.53;126297;1099;104143;-80
2021/09/26 02:20:48;;;;;;;19.80;8.70;;;;;;;15.23;69.52;100989.42;126338;1099;104165;-80
2021/09/26 02:23:21;;;;;;;20.87;9.23;;;;;;;15.24;68.56;100985.05;126309;1099;104338;-80
2021/09/26 02:25:54;;;;;;;20.13;9.00;;;;;;;15.26;69.24;100988.61;126325;1099;104143;-81
2021/09/26 02:28:25;;;;;;;19.03;8.37;;;;;;;15.26;68.78;100991.26;126300;1099;102208;-80
2021/09/26 02:30:55;;;;;;;19.85;9.00;;;;;;;15.26;69.25;100992.14;126359;1099;104239;-81
2021/09/26 02:33:26;;;;;;;21.10;9.00;;;;;;;15.26;69.83;100983.33;126343;1099;104413;-80
2021/09/26 02:35:57;;;;;;;21.23;8.90;;;;;;;15.27;69.06;100988.65;126303;1099;104133;-80
2021/09/26 02:38:28;;;;;;;20.47;8.87;;;;;;;15.26;69.54;100983.33;126218;1097;104133;-79
2021/09/26 02:41:05;;;;;;;20.93;9.10;;;;;;;15.25;68.86;100979.80;126311;1099;104245;-82
2021/09/26 02:43:43;;;;;;;20.27;9.57;;;;;;;15.25;68.84;100982.44;126367;1097;104239;-80
2021/09/26 02:46:23;;;;;;;21.63;8.60;;;;;;;15.26;69.03;100980.68;126368;1098;104252;-81
2021/09/26 02:48:54;;;;;;;20.33;8.83;;;;;;;15.26;69.63;100981.56;126302;1097;104142;-80
2021/09/26 02:51:26;;;;;;;19.87;8.80;;;;;;;15.26;69.88;100984.20;126333;1098;104169;-80
2021/09/26 02:53:59;;;;;;;17.47;8.70;;;;;;;15.27;70.12;100977.19;126359;1099;104245;-80
2021/09/26 02:56:30;;;;;;;21.73;8.10;;;;;;;15.26;69.42;100980.68;126308;1098;104208;-80
2021/09/26 02:59:03;;;;;;;20.10;8.33;;;;;;;15.25;69.89;100986.81;126238;1099;104336;-80
2021/09/26 03:01:34;;;;;;;19.10;8.17;;;;;;;15.25;69.86;100990.38;126351;1099;104134;-81
2021/09/26 03:04:06;;;;;;;17.90;8.25;;;;;;;15.26;69.11;100988.61;126384;1099;104169;-81
2021/09/26 03:06:37;;;;;;;16.57;7.80;;;;;;;15.25;70.08;100995.66;126315;1099;104137;-80
2021/09/26 03:09:08;;;;;;;20.80;8.43;;;;;;;15.26;69.57;100999.19;126305;1099;104242;-79
2021/09/26 03:11:40;;;;;;;18.77;8.60;;;;;;;15.25;70.05;100997.39;126321;1099;104262;-80
2021/09/26 03:14:11;;;;;;;18.07;8.67;;;;;;;15.23;69.20;100999.11;126343;1098;104146;-81
2021/09/26 03:16:42;;;;;;;19.67;8.50;;;;;;;15.22;69.86;101010.53;126349;1099;104284;-80
2021/09/26 03:19:12;;;;;;;18.00;9.00;;;;;;;15.18;69.58;101004.28;126285;1099;104140;-81
2021/09/26 03:21:43;;;;;;;19.27;9.03;;;;;;;15.18;69.74;101003.40;126353;1099;104175;-79
2021/09/26 03:24:14;;;;;;;20.43;9.00;;;;;;;15.16;69.52;101007.73;126297;1099;104220;-79
2021/09/26 03:26:44;;;;;;;21.63;9.87;;;;;;;15.14;70.33;101007.70;126317;1097;104249;-81
2021/09/26 03:29:15;;;;;;;20.00;9.67;;;;;;;15.13;70.45;101002.37;126270;1098;104208;-79
2021/09/26 03:31:46;;;;;;;20.30;9.47;;;;;;;15.13;69.95;101000.64;126331;1099;104261;-80
2021/09/26 03:34:16;;;;;;;21.60;9.50;;;;;;;15.15;70.18;101005.97;126281;1099;104217;-79
2021/09/26 03:36:48;;;;;;;21.40;10.20;;;;;;;15.15;69.84;101008.61;126292;1099;104232;-80
2021/09/26 03:39:18;;;;;;;22.40;9.27;;;;;;;15.15;69.47;101004.20;126245;1099;104133;-80
2021/09/26 03:41:51;;;;;;;18.93;8.47;;;;;;;15.12;69.73;100998.84;126356;1099;104165;-79
2021/09/26 03:44:24;;;;;;;20.13;8.73;;;;;;;15.08;70.33;101004.89;126363;1099;104232;-81
2021/09/26 03:46:59;;;;;;;19.23;7.95;;;;;;;15.07;70.54;101005.77;126358;1099;104262;-81
2021/09/26 03:49:33;;;;;;;17.20;8.03;;;;;;;15.03;70.63;100999.48;126301;1099;104129;-81
2021/09/26 03:52:06;;;;;;;18.73;8.37;;;;;;;15.04;70.73;101005.70;126293;1097;104299;-78
2021/09/26 03:54:39;;;;;;;19.83;8.47;;;;;;;15.04;69.81;100996.01;126459;1099;104117;-78
2021/09/26 03:57:12;;;;;;;17.40;8.27;;;;;;;15.05;70.43;100989.87;126299;1099;104143;-81
2021/09/26 03:59:47;;;;;;;19.90;8.23;;;;;;;15.06;70.76;100996.92;126330;1099;104195;-81
2021/09/26 04:02:24;;;;;;;17.67;8.67;;;;;;;15.08;70.70;100992.59;126350;1099;104191;-79
2021/09/26 04:04:55;;;;;;;17.50;7.90;;;;;;;15.08;70.14;101003.17;126245;1099;104226;-80
2021/09/26 04:07:27;;;;;;;18.57;8.23;;;;;;;15.10;70.15;101003.20;126298;1099;104261;-81
2021/09/26 04:09:57;;;;;;;20.00;8.35;;;;;;;15.12;70.99;101006.77;126075;1099;104255;-80
2021/09/26 04:12:28;;;;;;;17.53;8.07;;;;;;;15.13;70.85;100998.00;126261;1099;104255;-81
2021/09/26 04:14:59;;;;;;;21.47;8.80;;;;;;;15.16;70.63;101002.45;126351;1099;104241;-79
2021/09/26 04:17:29;;;;;;;19.43;8.43;;;;;;;15.15;70.46;101008.61;126314;1098;104239;-81
2021/09/26 04:20:00;;;;;;;18.33;8.33;;;;;;;15.13;70.09;101011.22;126272;1099;104169;-80
2021/09/26 04:22:31;;;;;;;17.87;7.90;;;;;;;15.12;70.81;101009.41;126286;1099;104213;-79
2021/09/26 04:25:03;;;;;;;17.53;8.33;;;;;;;15.12;70.04;101008.53;126367;1099;104139;-80
2021/09/26 04:27:34;;;;;;;18.70;8.03;;;;;;;15.14;70.08;101009.45;126288;1099;104749;-81
2021/09/26 04:30:06;;;;;;;18.07;7.87;;;;;;;15.17;71.00;101009.53;126204;1099;104175;-80
2021/09/26 04:32:38;;;;;;;20.70;7.93;;;;;;;15.19;70.49;101016.66;126371;1099;104216;-79
2021/09/26 04:35:09;;;;;;;19.53;8.30;;;;;;;15.22;70.37;101014.09;126341;1099;104249;-80
2021/09/26 04:37:40;;;;;;;18.60;8.37;;;;;;;15.25;70.82;101015.89;126296;1099;104192;-79
2021/09/26 04:40:12;;;;;;;16.83;8.03;;;;;;;15.27;70.56;101016.84;126275;1099;104137;-78
2021/09/26 04:42:43;;;;;;;20.20;8.50;;;;;;;15.31;71.29;101017.81;126310;1099;104217;-80
2021/09/26 04:45:16;;;;;;;19.57;8.60;;;;;;;15.34;70.09;101021.41;126344;1099;104157;-79
2021/09/26 04:47:47;;;;;;;17.03;7.77;;;;;;;15.35;70.06;101033.78;126346;1099;104182;-80
2021/09/26 04:50:20;;;;;;;20.60;7.43;;;;;;;15.39;70.68;101032.10;126170;1099;105613;-80
2021/09/26 04:52:51;;;;;;;18.60;8.13;;;;;;;15.42;71.06;101034.82;126342;1099;117855;-79
2021/09/26 04:55:24;;;;;;;17.27;7.80;;;;;;;15.43;70.45;101026.92;126308;1099;104517;-79
2021/09/26 04:57:56;;;;;;;18.50;8.27;;;;;;;15.46;70.96;101028.77;126326;1099;104136;-81
2021/09/26 05:00:28;;;;;;;16.90;7.53;;;;;;;15.48;70.62;101029.69;126334;1099;104192;-80
2021/09/26 05:02:59;;;;;;;17.87;7.53;;;;;;;15.51;70.59;101028.88;126298;1099;104682;-79
2021/09/26 05:05:31;;;;;;;18.37;7.77;;;;;;;15.53;70.47;101033.31;126183;1099;104271;-80
2021/09/26 05:08:02;;;;;;;17.87;7.47;;;;;;;15.55;70.53;101028.98;126207;1098;104303;-80
2021/09/26 05:10:33;;;;;;;17.20;7.33;;;;;;;15.58;70.15;101036.08;126230;1099;104165;-80
2021/09/26 05:13:03;;;;;;;18.33;7.93;;;;;;;15.60;70.44;101029.09;126158;1099;111698;-82
2021/09/26 05:15:35;;;;;;;16.17;6.63;;;;;;;15.62;69.87;101041.47;126216;1099;104633;-81
2021/09/26 05:18:06;;;;;;;16.30;7.20;;;;;;;15.63;70.70;101035.34;126200;1099;104899;-80
2021/09/26 05:20:37;;;;;;;15.03;7.20;;;;;;;15.63;69.97;101037.98;126157;1099;104303;-78
2021/09/26 05:23:08;;;;;;;14.70;7.50;;;;;;;15.66;69.83;101039.82;126215;1099;104767;-81
2021/09/26 05:25:39;;;;;;;15.57;6.77;;;;;;;15.69;70.75;101039.89;126201;1099;104748;-80
2021/09/26 05:28:15;;;;;;;15.63;6.77;;;;;;;15.73;69.95;101044.38;126190;1099;104239;-79
2021/09/26 05:30:50;;;;;;;14.87;6.90;;;;;;;15.76;70.65;101044.45;126246;1099;104316;-79
2021/09/26 05:33:25;;;;;;;17.87;7.03;;;;;;;15.80;70.55;101045.47;125194;1102;104195;-79
2021/09/26 05:35:55;;;;;;;;;;;;;;;15.81;69.66;101045.47;125343;1102;104174;-79
2021/09/26 05:38:28;;;;;;;16.33;7.07;;;;;;;15.85;70.29;101050.83;125391;1099;104171;-80
2021/09/26 05:45:48;;;;;;;16.10;6.90;;;;;;;15.94;69.86;101057.25;124618;1109;112265;-78
2021/09/26 06:16:02;;;;;;;13.20;6.53;;;;;;;16.37;69.91;101072.28;125277;1102;104166;-80
2021/09/26 06:18:34;;;;;;;15.98;6.58;;;;;;;16.39;69.18;101071.44;125292;1101;104147;-81
2021/09/26 06:21:05;;;;;;;15.80;6.90;;;;;;;16.41;69.66;101064.44;125222;1101;104156;-80
2021/09/26 06:23:36;;;;;;;13.53;6.50;;;;;;;16.45;69.59;101070.69;125181;1102;104143;-81
2021/09/26 06:26:07;;;;;;;15.70;6.90;;;;;;;16.47;69.30;101061.92;125134;1102;104582;-80
2021/09/26 06:28:38;;;;;;;16.00;6.97;;;;;;;16.49;69.83;101078.73;125156;1102;104149;-79
2021/09/26 06:31:09;;;;;;;17.83;7.23;;;;;;;16.50;69.00;101083.17;125023;1102;104201;-81
2021/09/26 06:33:41;;;;;;;19.80;7.30;;;;;;;16.53;69.03;101084.97;125040;1102;104200;-80
2021/09/26 06:36:12;;;;;;;15.63;7.17;;;;;;;16.54;69.30;101085.00;125168;1102;104141;-79
2021/09/26 06:38:43;;;;;;;14.70;6.97;;;;;;;16.57;69.65;101093.89;125173;1102;104175;-78
2021/09/26 06:41:15;;;;;;;16.70;7.63;;;;;;;16.59;69.67;101089.52;125066;1102;104220;-78
2021/09/26 06:43:46;;;;;;;17.70;7.13;;;;;;;16.63;69.21;101088.72;125200;1102;104216;-78
2021/09/26 06:46:17;;;;;;;17.50;6.77;;;;;;;16.66;68.81;101089.67;125222;1102;104182;-79
2021/09/26 06:48:48;;;;;;;16.00;7.67;;;;;;;16.69;68.95;101096.80;125037;1103;104255;-78
2021/09/26 06:51:18;;;;;;;14.77;6.97;;;;;;;16.72;68.83;101091.56;125159;1102;104203;-78
2021/09/26 06:53:49;;;;;;;15.37;7.10;;;;;;;16.75;68.69;101093.36;125253;1102;101896;-80
2021/09/26 06:56:20;;;;;;;13.43;6.77;;;;;;;16.77;69.04;101087.23;125203;1102;104283;-80
2021/09/26 06:58:51;;;;;;;17.10;7.30;;;;;;;16.82;68.62;101092.62;125290;1102;104165;-80
2021/09/26 07:01:21;;;;;;;16.27;7.13;;;;;;;16.88;68.58;101092.78;125222;1102;104376;-80
2021/09/26 07:03:55;;;;;;;16.67;7.40;;;;;;;16.93;68.79;101095.52;125213;1102;104172;-79
2021/09/26 07:06:25;;;;;;;14.13;6.50;;;;;;;16.97;68.34;101095.61;125223;1102;104237;-78
2021/09/26 07:08:56;;;;;;;16.73;7.27;;;;;;;17.02;68.78;101095.70;125317;1102;104172;-78
2021/09/26 07:11:27;;;;;;;15.93;7.00;;;;;;;17.08;68.41;101103.77;125088;1102;104176;-81
2021/09/26 07:14:00;;;;;;;15.98;6.92;;;;;;;17.16;68.41;101101.26;125180;1102;104153;-80
2021/09/26 07:16:31;;;;;;;15.00;7.00;;;;;;;17.22;68.63;101098.72;125116;1102;104150;-79
2021/09/26 07:19:02;;;;;;;14.27;6.40;;;;;;;17.28;68.60;101104.13;125161;1102;104248;-80
2021/09/26 07:21:33;;;;;;;17.05;7.00;;;;;;;17.34;68.58;101109.55;125240;1102;104140;-80
2021/09/26 07:24:04;;;;;;;18.27;7.30;;;;;;;17.43;68.33;101116.75;125074;1102;104672;-79
2021/09/26 07:26:35;;;;;;;13.93;6.20;;;;;;;17.48;68.21;101107.10;125177;1102;104248;-80
2021/09/26 07:29:07;;;;;;;14.80;6.70;;;;;;;17.52;68.10;101116.91;125109;1102;104176;-81
2021/09/26 07:31:38;;;;;;;14.90;7.00;;;;;;;17.55;67.81;101106.35;125176;1102;104140;-80
2021/09/26 07:34:09;;;;;;;14.47;6.43;;;;;;;17.57;67.68;101107.27;125029;1102;104341;-79
2021/09/26 07:36:40;;;;;;;13.20;6.50;;;;;;;17.63;67.60;101111.79;125025;1102;104284;-79
2021/09/26 07:39:11;;;;;;;15.47;6.50;;;;;;;17.67;67.53;101118.03;125249;1101;104213;-81
2021/09/26 07:41:41;;;;;;;16.33;6.57;;;;;;;17.70;67.39;101110.12;124967;1102;104210;-80
2021/09/26 07:44:12;;;;;;;15.30;6.13;;;;;;;17.76;67.41;101115.52;125229;1102;104143;-80
2021/09/26 07:46:44;;;;;;;15.43;7.20;;;;;;;17.82;67.39;101120.93;125146;1102;104217;-80
2021/09/26 07:49:15;;;;;;;13.43;6.57;;;;;;;17.88;67.51;101121.06;125204;1102;104729;-80
2021/09/26 07:51:46;;;;;;;13.70;6.57;;;;;;;17.95;67.35;101124.70;125168;1102;104175;-80
2021/09/26 07:54:18;;;;;;;14.43;6.20;;;;;;;18.03;67.25;101128.39;125152;1102;104172;-80
2021/09/26 07:56:49;;;;;;;14.60;5.97;;;;;;;18.11;67.26;101125.84;124989;1102;104146;-80
2021/09/26 07:59:20;;;;;;;12.57;6.13;;;;;;;18.17;67.33;101130.33;125148;1102;104653;-81
2021/09/26 08:01:51;;;;;;;16.13;6.67;;;;;;;18.22;66.84;101132.20;125220;1102;104213;-80
2021/09/26 08:04:22;;;;;;;12.87;6.23;;;;;;;18.29;66.56;101125.20;125051;1102;104332;-79
2021/09/26 08:06:52;;;;;;;15.27;6.37;;;;;;;18.35;66.94;101125.28;125163;1102;105655;-79
2021/09/26 08:09:23;;;;;;;14.13;6.50;;;;;;;18.42;66.18;101124.51;125015;1102;104201;-79
2021/09/26 08:11:53;;;;;;;16.07;6.83;;;;;;;18.49;65.74;101123.70;125197;1102;104150;-79
2021/09/26 08:14:24;;;;;;;14.70;6.47;;;;;;;18.55;65.29;101128.21;125004;1102;104149;-78
2021/09/26 08:16:55;;;;;;;13.30;6.40;;;;;;;18.64;65.43;101127.45;125156;1102;104229;-79
2021/09/26 08:19:26;;;;;;;12.77;6.07;;;;;;;18.73;65.87;101122.25;125154;1102;104156;-79
2021/09/26 08:21:56;;;;;;;14.10;6.20;;;;;;;18.84;65.72;101125.95;125203;1102;104230;-81
2021/09/26 08:24:27;;;;;;;12.37;6.00;;;;;;;18.93;65.48;101129.58;125178;1101;104175;-80
2021/09/26 08:26:58;;;;;;;16.27;6.37;;;;;;;19.01;64.35;101122.57;126355;1099;104201;-81
2021/09/26 08:29:30;;;;;;;15.03;6.33;;;;;;;19.08;64.53;101124.44;126264;1099;119007;-78
2021/09/26 08:32:01;;;;;;;13.03;6.47;;;;;;;19.13;64.41;101129.80;126324;1099;104143;-79
2021/09/26 08:34:32;;;;;;;12.03;5.93;;;;;;;19.19;64.50;101129.87;126303;1099;104380;-80
2021/09/26 08:37:03;;;;;;;12.33;5.43;;;;;;;19.25;63.08;101124.61;126333;1099;104149;-78
2021/09/26 08:39:34;;;;;;;14.63;6.07;;;;;;;19.32;63.63;101131.79;126293;1099;104146;-78
2021/09/26 08:42:05;;;;;;;15.80;6.80;;;;;;;19.40;62.56;101129.20;126331;1099;104185;-78
2021/09/26 08:44:36;;;;;;;11.27;5.90;;;;;;;19.48;63.13;101126.62;126306;1099;104409;-80
2021/09/26 08:47:07;;;;;;;12.90;6.70;;;;;;;19.56;63.19;101124.91;126357;1099;104191;-80
2021/09/26 08:49:39;;;;;;;12.00;6.23;;;;;;;19.66;63.52;101123.20;126305;1099;104143;-79
2021/09/26 08:52:12;;;;;;;16.60;6.30;;;;;;;19.70;61.98;101120.58;126375;1099;104176;-79
2021/09/26 08:54:44;;;;;;;13.93;6.50;;;;;;;19.77;62.22;101123.32;126275;1099;104321;-79
2021/09/26 08:57:15;;;;;;;12.80;6.23;;;;;;;19.82;61.78;101129.56;126326;1099;104143;-80
2021/09/26 08:59:45;;;;;;;14.30;6.33;;;;;;;19.87;61.53;101125.19;126278;1099;104144;-78
2021/09/26 09:02:16;;;;;;;14.07;6.23;;;;;;;19.89;61.35;101124.30;126328;1099;104153;-80
2021/09/26 09:04:47;;;;;;;13.07;6.20;;;;;;;19.93;61.23;101122.57;126351;1099;104165;-80
2021/09/26 09:07:18;;;;;;;9.90;5.50;;;;;;;19.98;61.20;101123.48;126346;1099;104204;-79
2021/09/26 09:09:54;;;;;;;11.33;5.77;;;;;;;20.03;61.34;101124.40;126265;1099;104386;-80
2021/09/26 09:12:29;;;;;;;13.97;6.27;;;;;;;20.08;61.38;101127.97;126319;1098;104130;-79
2021/09/26 09:15:02;;;;;;;13.57;6.13;;;;;;;20.11;61.12;101117.34;126338;1099;104216;-79
2021/09/26 09:17:36;;;;;;;12.15;5.72;;;;;;;20.19;61.21;101116.50;126336;1099;104191;-79
2021/09/26 09:20:22;;;;;;;9.57;5.47;;;;;;;20.27;60.50;101125.42;126318;1099;104238;-79
2021/09/26 09:22:56;;;;;;;12.17;5.83;;;;;;;20.31;60.12;101119.24;126294;1099;104392;-79
2021/09/26 09:25:39;;;;;;;12.13;5.80;;;;;;;20.38;60.73;101120.16;126297;1099;104251;-80
2021/09/26 09:28:13;;;;;;;12.53;6.10;;;;;;;20.44;60.43;101125.52;126377;1099;104542;-80
2021/09/26 09:30:47;;;;;;;9.73;5.70;;;;;;;20.47;59.51;101126.45;126268;1099;104223;-79
2021/09/26 09:33:19;;;;;;;11.20;5.67;;;;;;;20.53;59.94;101120.23;126373;1099;104169;-79
2021/09/26 09:35:52;;;;;;;12.63;5.87;;;;;;;20.58;58.96;101121.13;126343;1099;104326;-79
2021/09/26 09:38:37;;;;;;;12.98;5.87;;;;;;;20.65;59.85;101130.11;126367;1098;104306;-80
2021/09/26 09:41:08;;;;;;;11.30;5.73;;;;;;;20.72;58.74;101121.23;126256;1099;109263;-80
2021/09/26 09:43:49;;;;;;;11.83;5.77;;;;;;;20.78;59.20;101121.25;126383;1099;104153;-80
2021/09/26 09:46:33;;;;;;;10.87;5.43;;;;;;;20.88;58.99;101126.62;126346;1099;104267;-79
2021/09/26 09:49:17;;;;;;;11.17;5.70;;;;;;;20.94;58.90;101116.88;126258;1099;104166;-79
2021/09/26 09:51:54;;;;;;;12.40;5.85;;;;;;;20.96;58.83;101111.55;126352;1099;104939;-79
2021/09/26 09:54:37;;;;;;;10.20;5.40;;;;;;;20.99;58.22;101114.22;126326;1099;104146;-78
2021/09/26 09:57:15;;;;;;;13.73;6.57;;;;;;;21.05;57.92;101108.91;126340;1099;104236;-79
2021/09/26 09:59:47;;;;;;;11.73;5.70;;;;;;;21.08;57.92;101105.33;126298;1099;104153;-81
2021/09/26 10:02:18;;;;;;;10.40;6.00;;;;;;;21.14;58.44;101108.89;126327;1097;104140;-81
2021/09/26 10:04:49;;;;;;;15.00;6.53;;;;;;;21.24;58.10;101107.16;126341;1099;104248;-80
2021/09/26 10:07:23;;;;;;;11.80;5.97;;;;;;;21.32;58.48;101120.51;126354;1099;103983;-79
2021/09/26 10:09:54;;;;;;;11.93;5.60;;;;;;;21.36;57.71;101108.92;126213;1099;104213;-80
2021/09/26 10:12:27;;;;;;;11.83;5.90;;;;;;;21.44;57.62;101107.17;126317;1099;104188;-81
2021/09/26 10:14:59;;;;;;;11.27;6.03;;;;;;;21.59;56.72;101103.63;126298;1099;104262;-79
2021/09/26 10:17:31;;;;;;;13.57;6.87;;;;;;;21.73;57.38;101099.16;126272;1099;104162;-77
2021/09/26 10:20:01;;;;;;;15.03;6.90;;;;;;;21.85;57.37;101100.95;126334;1099;104143;-79
2021/09/26 10:22:36;;;;;;;11.50;6.30;;;;;;;21.90;56.59;101101.81;126353;1099;104246;-79
2021/09/26 10:25:08;;;;;;;11.47;5.80;;;;;;;21.93;56.74;101100.06;126295;1099;104582;-77
2021/09/26 10:27:39;;;;;;;12.07;5.53;;;;;;;21.94;56.01;101104.48;126299;1099;104318;-80
2021/09/26 10:30:12;;;;;;;12.90;5.37;;;;;;;21.93;55.58;101094.72;126304;1099;104143;-79
2021/09/26 10:32:45;;;;;;;10.97;5.43;;;;;;;21.90;55.83;101091.13;126281;1099;109466;-78
2021/09/26 10:35:15;;;;;;;9.63;4.90;;;;;;;21.82;55.58;101076.03;126178;1099;104251;-78
2021/09/26 10:37:46;;;;;;;8.37;4.90;;;;;;;21.86;55.58;101072.44;126176;1099;104203;-78
2021/09/26 10:40:18;;;;;;;11.17;5.07;;;;;;;21.89;55.46;101072.44;125294;1099;104779;-78
2021/09/26 10:42:49;;;;;;;11.43;5.17;;;;;;;21.82;55.53;101068.89;126129;1099;104172;-80
2021/09/26 10:45:27;;;;;;;13.67;5.53;;;;;;;21.82;54.52;101076.91;126253;1099;104216;-79
2021/09/26 10:48:02;;;;;;;9.43;4.70;;;;;;;21.84;55.16;101077.78;126284;1099;104248;-79
2021/09/26 10:50:43;;;;;;;9.83;5.03;;;;;;;21.86;54.48;101075.11;126208;1099;103004;-78
2021/09/26 10:53:22;;;;;;;9.83;4.40;;;;;;;21.93;54.17;101073.34;126366;1099;108194;-79
2021/09/26 10:55:53;;;;;;;10.33;5.17;;;;;;;21.98;54.42;101067.08;126270;1099;104140;-78
2021/09/26 10:58:26;;;;;;;10.90;5.70;;;;;;;21.87;54.25;101072.44;126342;1099;104245;-78
2021/09/26 11:01:02;;;;;;;8.23;4.90;;;;;;;21.90;54.42;101068.88;126347;1099;104153;-79
2021/09/26 11:03:39;;;;;;;8.30;4.50;;;;;;;21.94;54.90;101067.08;126372;1098;118518;-79
2021/09/26 11:06:24;;;;;;;8.07;4.90;;;;;;;21.93;54.28;101060.86;126326;1096;104366;-79
2021/09/26 11:08:56;;;;;;;9.00;4.97;;;;;;;21.96;54.46;101068.88;126325;1099;104217;-78
2021/09/26 11:11:41;;;;;;;9.17;5.00;;;;;;;22.00;54.22;101064.40;126306;1099;104144;-79
2021/09/26 11:14:12;;;;;;;7.50;4.70;;;;;;;21.96;53.76;101059.98;126330;1099;104140;-79
2021/09/26 11:16:56;;;;;;;7.57;4.70;;;;;;;21.95;54.09;101048.38;126305;1099;104319;-79
2021/09/26 11:19:30;;;;;;;7.63;4.60;;;;;;;21.96;54.24;101052.84;126265;1099;104140;-80
2021/09/26 11:22:04;;;;;;;10.00;5.17;;;;;;;21.95;53.99;101045.70;126305;1099;105541;-79
2021/09/26 11:24:39;;;;;;;8.53;4.75;;;;;;;22.00;53.46;101043.94;126350;1099;104146;-79
2021/09/26 11:27:21;;;;;;;8.27;4.70;;;;;;;22.03;53.18;101048.36;126352;1098;104268;-78
2021/09/26 11:30:19;;;;;;;7.60;4.57;;;;;;;22.02;52.32;101044.81;126292;1099;104204;-79
2021/09/26 11:33:06;;;;;;;6.63;4.10;;;;;;;21.84;52.16;101048.40;126259;1099;104303;-79
2021/09/26 11:35:39;;;;;;;7.23;4.30;;;;;;;21.77;52.28;101046.66;126349;1099;104139;-79
2021/09/26 11:38:14;;;;;;;9.83;4.10;;;;;;;21.73;52.34;101042.20;126270;1099;104172;-78
2021/09/26 11:41:02;;;;;;;8.43;4.47;;;;;;;21.72;51.42;101040.41;126340;1099;104169;-78
2021/09/26 11:43:37;;;;;;;8.80;4.47;;;;;;;21.72;50.68;101038.65;126265;1099;104137;-78
2021/09/26 11:46:21;;;;;;;10.87;4.80;;;;;;;21.74;51.74;101030.63;126342;1099;104303;-80
2021/09/26 11:48:54;;;;;;;9.60;4.70;;;;;;;21.73;51.61;101034.19;126295;1098;104216;-79
2021/09/26 11:51:25;;;;;;;8.87;4.70;;;;;;;21.74;50.71;101033.30;126348;1099;104149;-78
2021/09/26 11:53:56;;;;;;;7.27;4.67;;;;;;;21.74;51.56;101033.30;126139;1099;104213;-78
2021/09/26 11:56:31;;;;;;;9.07;4.63;;;;;;;21.76;51.07;101030.63;126264;1099;104237;-79
2021/09/26 11:59:05;;;;;;;10.17;5.00;;;;;;;21.79;51.45;101026.16;126327;1099;104783;-79
2021/09/26 12:01:39;;;;;;;9.27;5.10;;;;;;;21.79;50.92;101028.83;126335;1099;104274;-78